Time;durP1;ratioP1;P1;durP2;ratioP2;P2;SDS_P1;SDS_P2;PMS_P1;PMS_P2;Temp;Humidity;BMP_temperature;BMP_pressure;BME280_temperature;BME280_humidity;BME280_pressure;Samples;Min_cycle;Max_cycle;Signal;HPM_P1;HPM_P2
2022/05/13 00:00:52;;;;;;;4.70;1.95;;;10.60;99.90;;;;;;5039178;28;20511;-68
2022/05/13 00:03:18;;;;;;;5.88;2.03;;;10.60;99.90;;;;;;5035614;28;20041;-66
2022/05/13 00:05:43;;;;;;;6.20;1.80;;;10.70;99.90;;;;;;5030736;28;20037;-67
2022/05/13 00:08:09;;;;;;;8.57;1.92;;;10.70;99.90;;;;;;5041982;28;20488;-66
2022/05/13 00:10:34;;;;;;;8.23;2.45;;;10.70;99.90;;;;;;5018714;28;20057;-66
2022/05/13 00:13:00;;;;;;;5.25;2.00;;;10.70;99.90;;;;;;5061385;28;20108;-67
2022/05/13 00:15:27;;;;;;;7.95;2.25;;;10.70;99.90;;;;;;5036580;28;20041;-67
2022/05/13 00:17:56;;;;;;;5.13;1.85;;;10.60;99.90;;;;;;5040308;28;20036;-66
2022/05/13 00:20:25;;;;;;;5.20;1.80;;;10.70;99.90;;;;;;5040378;28;20127;-67
2022/05/13 00:22:53;;;;;;;4.70;2.10;;;10.60;99.90;;;;;;5054542;28;20036;-66
2022/05/13 00:25:26;;;;;;;3.58;1.75;;;10.60;99.90;;;;;;5031675;28;20384;-67
2022/05/13 00:27:55;;;;;;;5.32;1.95;;;10.70;99.90;;;;;;5039127;28;20040;-66
2022/05/13 00:30:21;;;;;;;4.18;1.65;;;10.80;99.90;;;;;;5053219;28;20125;-67
2022/05/13 00:32:49;;;;;;;4.30;1.77;;;10.80;99.90;;;;;;5054426;28;20037;-67
2022/05/13 00:35:15;;;;;;;4.63;1.65;;;10.80;99.90;;;;;;5052880;28;20049;-67
2022/05/13 00:37:41;;;;;;;7.03;1.60;;;10.80;99.90;;;;;;5052679;28;20032;-67
2022/05/13 00:40:08;;;;;;;5.63;1.58;;;10.90;99.90;;;;;;5070995;28;20043;-67
2022/05/13 00:42:33;;;;;;;6.90;1.55;;;10.90;99.90;;;;;;5054658;28;20052;-67
2022/05/13 00:44:59;;;;;;;7.15;2.03;;;10.90;99.90;;;;;;5055121;28;20070;-67
2022/05/13 00:47:25;;;;;;;4.05;2.42;;;10.90;99.90;;;;;;5041844;28;20105;-66
2022/05/13 00:49:55;;;;;;;5.43;2.05;;;10.90;99.90;;;;;;5047198;28;20163;-67
2022/05/13 00:52:21;;;;;;;9.55;1.77;;;10.90;99.90;;;;;;5056778;28;20120;-66
2022/05/13 00:54:47;;;;;;;5.32;1.63;;;10.90;99.90;;;;;;5044274;28;20036;-67
2022/05/13 00:57:13;;;;;;;6.57;1.67;;;11.00;99.90;;;;;;5046452;28;20107;-67
2022/05/13 00:59:41;;;;;;;4.20;1.80;;;11.00;99.90;;;;;;5052501;28;20119;-67
2022/05/13 01:02:08;;;;;;;4.82;1.80;;;10.90;99.90;;;;;;5068121;28;20049;-67
2022/05/13 01:04:35;;;;;;;4.53;1.48;;;11.00;99.90;;;;;;5063591;28;20040;-66
2022/05/13 01:07:08;;;;;;;6.30;1.80;;;11.00;99.90;;;;;;5036074;28;20040;-67
2022/05/13 01:09:38;;;;;;;;;;;11.00;99.90;;;;;;5053418;28;20089;-67
2022/05/13 01:12:09;;;;;;;4.53;1.70;;;11.00;99.90;;;;;;5045423;28;19924;-67
2022/05/13 01:14:45;;;;;;;7.57;2.20;;;10.90;99.90;;;;;;5057660;28;20530;-67
2022/05/13 01:20:06;;;;;;;4.00;1.90;;;10.90;99.90;;;;;;5061155;28;20388;-66
2022/05/13 01:22:42;;;;;;;4.85;1.55;;;10.90;99.90;;;;;;5065196;28;20545;-66
2022/05/13 01:25:09;;;;;;;7.30;2.03;;;10.90;99.90;;;;;;5037558;28;20491;-67
2022/05/13 01:27:35;;;;;;;4.93;1.85;;;10.90;99.90;;;;;;5053908;28;20386;-67
2022/05/13 01:30:01;;;;;;;5.80;2.17;;;10.90;99.90;;;;;;5089474;28;20040;-67
2022/05/13 01:32:26;;;;;;;5.63;1.65;;;10.90;99.90;;;;;;5067381;28;20040;-66
2022/05/13 01:34:52;;;;;;;5.25;1.60;;;10.90;99.90;;;;;;5067541;28;20099;-66
2022/05/13 01:37:18;;;;;;;8.38;1.50;;;11.00;99.90;;;;;;5091751;28;20395;-66
2022/05/13 01:39:43;;;;;;;5.28;1.73;;;11.00;99.90;;;;;;5072129;28;20059;-67
2022/05/13 01:42:09;;;;;;;5.95;1.83;;;10.90;99.90;;;;;;5073908;28;20169;-66
2022/05/13 01:44:34;;;;;;;7.25;2.35;;;10.90;99.90;;;;;;5071996;28;20039;-67
2022/05/13 01:47:00;;;;;;;6.72;2.00;;;10.90;99.90;;;;;;5089496;28;20032;-67
2022/05/13 01:49:26;;;;;;;6.65;2.13;;;10.90;99.90;;;;;;5054994;28;20044;-67
2022/05/13 01:51:51;;;;;;;6.22;2.03;;;10.90;99.90;;;;;;5053840;28;20036;-67
2022/05/13 01:54:17;;;;;;;8.57;2.50;;;11.00;99.90;;;;;;5064661;28;20040;-66
2022/05/13 01:56:42;;;;;;;5.00;1.80;;;11.00;99.90;;;;;;5089423;28;20037;-66
2022/05/13 01:59:08;;;;;;;6.63;2.00;;;10.90;99.90;;;;;;5055343;28;20032;-67
2022/05/13 02:01:33;;;;;;;5.35;1.70;;;10.90;99.90;;;;;;5061830;28;20059;-67
2022/05/13 02:03:59;;;;;;;7.32;2.30;;;10.90;99.90;;;;;;5072075;28;20391;-68
2022/05/13 02:06:26;;;;;;;7.07;1.98;;;10.90;99.90;;;;;;5089306;28;20118;-65
2022/05/13 02:08:55;;;;;;;6.40;2.00;;;10.90;99.90;;;;;;5073227;28;20040;-66
2022/05/13 02:11:22;;;;;;;6.22;1.65;;;10.90;99.90;;;;;;5054239;28;20036;-66
2022/05/13 02:13:49;;;;;;;6.07;1.92;;;10.90;99.90;;;;;;5062017;28;20053;-66
2022/05/13 02:16:15;;;;;;;5.00;1.88;;;10.90;99.90;;;;;;5043451;28;20491;-66
2022/05/13 02:18:41;;;;;;;6.20;2.05;;;10.90;99.90;;;;;;5033071;28;20033;-67
2022/05/13 02:21:08;;;;;;;6.15;1.70;;;11.00;99.90;;;;;;5034962;28;20492;-66
2022/05/13 02:23:34;;;;;;;8.88;2.17;;;11.00;99.90;;;;;;5052783;28;20105;-67
2022/05/13 02:26:06;;;;;;;5.78;2.10;;;11.00;99.90;;;;;;5045308;28;20032;-67
2022/05/13 02:28:34;;;;;;;7.90;2.20;;;11.00;99.90;;;;;;5053500;28;20048;-66
2022/05/13 02:31:00;;;;;;;4.05;1.73;;;11.00;99.90;;;;;;5027175;28;20449;-66
2022/05/13 02:33:28;;;;;;;4.82;2.20;;;11.00;99.90;;;;;;5067495;28;20068;-67
2022/05/13 02:35:53;;;;;;;4.75;2.10;;;11.00;99.90;;;;;;5047073;28;20051;-66
2022/05/13 02:38:19;;;;;;;6.05;1.95;;;11.00;99.90;;;;;;5052595;28;20490;-66
2022/05/13 02:43:50;;;;;;;7.50;1.77;;;10.90;99.90;;;;;;4988306;28;20042;-66
2022/05/13 02:46:27;;;;;;;8.05;1.98;;;10.90;99.90;;;;;;4985762;28;20047;-66
2022/05/13 02:48:53;;;;;;;7.30;2.55;;;10.80;99.90;;;;;;4943667;28;20460;-67
2022/05/13 02:51:20;;;;;;;7.20;2.08;;;10.90;99.90;;;;;;4984340;28;20051;-66
2022/05/13 02:53:46;;;;;;;6.38;2.10;;;10.90;99.90;;;;;;4957281;28;20430;-66
2022/05/13 02:56:13;;;;;;;5.15;2.00;;;10.90;99.90;;;;;;4972191;28;20034;-66
2022/05/13 02:58:39;;;;;;;8.02;2.08;;;10.90;99.90;;;;;;4974664;28;20051;-67
2022/05/13 03:01:07;;;;;;;4.75;2.00;;;10.90;99.90;;;;;;4955140;28;20078;-65
2022/05/13 03:03:34;;;;;;;6.32;1.77;;;10.90;99.90;;;;;;4954944;28;20117;-66
2022/05/13 03:06:00;;;;;;;5.93;2.33;;;10.90;99.90;;;;;;4953226;28;20065;-66
2022/05/13 03:08:26;;;;;;;6.60;2.10;;;10.90;99.90;;;;;;4963041;28;20557;-66
2022/05/13 03:10:51;;;;;;;9.05;2.30;;;10.90;99.90;;;;;;4953283;28;20054;-67
2022/05/13 03:13:19;;;;;;;8.25;2.33;;;10.90;99.90;;;;;;4967864;28;20183;-66
2022/05/13 03:15:45;;;;;;;7.65;2.05;;;10.90;99.90;;;;;;4977280;28;20397;-66
2022/05/13 03:18:11;;;;;;;6.45;2.10;;;10.80;99.90;;;;;;5044418;28;20052;-66
2022/05/13 03:20:37;;;;;;;4.63;2.25;;;10.80;99.90;;;;;;5052788;28;20093;-66
2022/05/13 03:23:03;;;;;;;7.90;2.35;;;10.90;99.90;;;;;;5054818;28;20170;-67
2022/05/13 03:25:28;;;;;;;9.15;2.53;;;10.90;99.90;;;;;;5072412;28;20112;-66
2022/05/13 03:27:54;;;;;;;6.97;2.10;;;10.80;99.90;;;;;;5070757;28;20128;-67
2022/05/13 03:30:22;;;;;;;9.43;2.33;;;10.90;99.90;;;;;;5062798;28;20505;-66
2022/05/13 03:32:48;;;;;;;7.25;1.95;;;10.80;99.90;;;;;;5071813;28;20107;-66
2022/05/13 03:35:15;;;;;;;8.60;2.30;;;10.80;99.90;;;;;;5071772;28;20035;-66
2022/05/13 03:37:41;;;;;;;12.63;2.33;;;10.80;99.90;;;;;;5068605;28;20044;-65
2022/05/13 03:40:08;;;;;;;6.43;2.20;;;10.90;99.90;;;;;;5056783;28;20111;-66
2022/05/13 03:42:36;;;;;;;6.18;2.25;;;10.90;99.90;;;;;;5072164;28;20078;-65
2022/05/13 03:45:03;;;;;;;11.07;3.17;;;10.90;99.90;;;;;;5070940;28;20051;-67
2022/05/13 03:47:29;;;;;;;6.82;2.15;;;10.90;99.90;;;;;;5070516;28;20043;-66
2022/05/13 03:49:55;;;;;;;7.78;2.47;;;10.90;99.90;;;;;;5070472;28;20040;-66
2022/05/13 03:52:20;;;;;;;9.15;2.30;;;10.90;99.90;;;;;;5038626;28;20056;-68
2022/05/13 03:54:46;;;;;;;12.15;2.63;;;10.90;99.90;;;;;;5054581;28;20039;-68
2022/05/13 03:57:11;;;;;;;12.35;2.65;;;10.90;99.90;;;;;;5051796;28;20119;-67
2022/05/13 03:59:37;;;;;;;8.23;2.40;;;10.90;99.90;;;;;;5053969;28;20115;-66
2022/05/13 04:02:04;;;;;;;8.80;2.10;;;10.90;99.90;;;;;;5059310;28;20049;-66
2022/05/13 04:08:56;;;;;;;11.80;2.42;;;10.90;99.90;;;;;;5069187;28;20115;-67
2022/05/13 04:09:59;;;;;;;11.23;2.25;;;10.90;99.90;;;;;;5068523;28;20032;-66
2022/05/13 04:17:57;;;;;;;9.57;2.78;;;10.90;99.90;;;;;;5051071;28;20047;-67
2022/05/13 04:20:22;;;;;;;8.15;2.63;;;10.90;99.90;;;;;;5051719;28;20037;-67
2022/05/13 04:22:48;;;;;;;9.63;2.97;;;10.90;99.90;;;;;;5037309;28;20063;-67
2022/05/13 04:25:13;;;;;;;7.85;2.10;;;10.90;99.90;;;;;;5070134;28;20139;-67
2022/05/13 04:27:41;;;;;;;9.35;2.42;;;10.90;99.90;;;;;;5038365;28;20048;-67
2022/05/13 04:30:07;;;;;;;12.63;2.97;;;10.90;99.90;;;;;;5035965;28;20587;-66
2022/05/13 04:32:33;;;;;;;9.57;2.42;;;10.90;99.90;;;;;;5035254;28;20045;-67
2022/05/13 04:34:58;;;;;;;13.18;3.03;;;10.90;99.90;;;;;;5053580;28;20047;-67
2022/05/13 04:37:25;;;;;;;16.90;3.00;;;10.90;99.90;;;;;;5070788;28;20032;-66
2022/05/13 04:39:53;;;;;;;11.07;2.85;;;10.90;99.90;;;;;;5045215;28;20105;-67
2022/05/13 04:45:05;;;;;;;12.30;2.83;;;10.90;99.90;;;;;;5042999;28;20052;-66
2022/05/13 04:50:15;;;;;;;9.60;2.67;;;11.00;99.90;;;;;;5053764;28;20047;-66
2022/05/13 04:52:40;;;;;;;13.02;3.30;;;11.00;99.90;;;;;;5043234;28;20025;-66
2022/05/13 04:55:06;;;;;;;11.30;2.95;;;11.00;99.90;;;;;;5050781;28;20080;-67
2022/05/13 04:57:32;;;;;;;7.50;2.67;;;11.00;99.90;;;;;;5041180;28;20087;-67
2022/05/13 04:59:58;;;;;;;9.70;2.80;;;11.10;99.90;;;;;;5034875;28;20044;-66
2022/05/13 05:02:23;;;;;;;13.93;3.78;;;11.10;99.90;;;;;;5039798;28;20512;-66
2022/05/13 05:04:49;;;;;;;13.80;2.88;;;11.10;99.90;;;;;;5052304;28;20040;-66
2022/05/13 05:07:15;;;;;;;9.77;2.83;;;11.10;99.90;;;;;;5068230;28;20041;-66
2022/05/13 05:09:40;;;;;;;15.18;3.05;;;11.20;99.90;;;;;;5071389;28;20502;-67
2022/05/13 05:12:08;;;;;;;9.10;3.22;;;11.20;99.90;;;;;;5054208;28;20033;-67
2022/05/13 05:14:33;;;;;;;13.65;3.42;;;11.20;99.90;;;;;;5055934;28;20060;-67
2022/05/13 05:16:59;;;;;;;13.50;3.22;;;11.30;99.90;;;;;;5065885;28;20046;-66
2022/05/13 05:19:25;;;;;;;14.30;3.13;;;11.30;99.90;;;;;;5069553;28;20059;-67
2022/05/13 05:21:51;;;;;;;13.70;3.28;;;11.40;99.90;;;;;;5055769;28;20039;-67
2022/05/13 05:24:16;;;;;;;12.90;3.35;;;11.40;99.90;;;;;;5072118;28;20044;-67
2022/05/13 05:26:42;;;;;;;12.07;3.33;;;11.40;99.90;;;;;;5046324;28;20500;-67
2022/05/13 05:29:08;;;;;;;12.63;2.78;;;11.50;99.90;;;;;;5064124;28;20109;-67
2022/05/13 05:31:34;;;;;;;10.88;3.50;;;11.60;99.90;;;;;;5042641;28;20491;-66
2022/05/13 05:33:59;;;;;;;10.57;3.05;;;11.60;99.90;;;;;;5068512;28;20116;-67
2022/05/13 05:36:25;;;;;;;11.77;3.28;;;11.60;99.90;;;;;;5061282;28;20036;-67
2022/05/13 05:38:51;;;;;;;10.05;3.17;;;11.70;99.90;;;;;;5060804;28;20040;-67
2022/05/13 05:41:18;;;;;;;11.75;2.85;;;11.80;99.90;;;;;;5059360;28;20434;-67
2022/05/13 05:43:44;;;;;;;15.35;3.53;;;11.90;99.90;;;;;;5044737;28;20052;-67
2022/05/13 05:46:09;;;;;;;18.00;3.45;;;11.90;99.90;;;;;;5058573;28;20494;-67
2022/05/13 05:48:35;;;;;;;11.55;3.75;;;12.10;99.90;;;;;;5067002;28;20079;-67
2022/05/13 05:51:01;;;;;;;13.48;4.03;;;12.20;99.90;;;;;;5066931;28;20127;-67
2022/05/13 05:59:00;;;;;;;15.43;3.38;;;12.50;99.90;;;;;;5066943;28;20097;-66
2022/05/13 06:01:26;;;;;;;11.55;3.10;;;12.50;99.90;;;;;;5064676;28;20024;-67
2022/05/13 06:03:52;;;;;;;12.55;3.30;;;12.60;99.90;;;;;;5059308;28;20044;-67
2022/05/13 06:06:18;;;;;;;10.68;3.22;;;12.70;99.90;;;;;;5071382;28;20036;-67
2022/05/13 06:08:44;;;;;;;13.23;3.35;;;12.70;99.90;;;;;;5064564;28;20429;-67
2022/05/13 06:11:09;;;;;;;10.82;2.53;;;12.90;99.90;;;;;;5065488;28;20486;-67
2022/05/13 06:13:36;;;;;;;9.10;2.67;;;13.00;99.90;;;;;;5058603;28;20053;-67
2022/05/13 06:16:02;;;;;;;11.57;2.92;;;13.10;99.90;;;;;;5022162;28;20040;-67
2022/05/13 06:18:27;;;;;;;11.93;3.10;;;13.20;99.90;;;;;;5021482;28;20059;-67
2022/05/13 06:20:53;;;;;;;12.25;3.22;;;13.20;99.90;;;;;;5039822;28;20116;-67
2022/05/13 06:23:18;;;;;;;10.60;3.08;;;13.30;99.90;;;;;;5043641;28;20398;-67
2022/05/13 06:25:44;;;;;;;8.70;1.60;;;13.30;99.90;;;;;;5042026;28;20037;-68
2022/05/13 06:28:10;;;;;;;5.20;1.27;;;13.30;99.90;;;;;;5033862;28;20399;-67
2022/05/13 06:30:36;;;;;;;8.25;1.75;;;13.30;99.90;;;;;;5030702;28;20055;-66
2022/05/13 06:33:03;;;;;;;6.32;1.52;;;13.30;99.90;;;;;;5069951;28;20049;-64
2022/05/13 06:35:32;;;;;;;4.28;1.30;;;13.30;99.90;;;;;;5052629;28;20036;-66
2022/05/13 06:37:58;;;;;;;7.93;1.67;;;13.30;99.90;;;;;;5036461;28;20033;-64
2022/05/13 06:40:24;;;;;;;8.48;2.17;;;13.30;99.90;;;;;;5033220;28;20048;-65
2022/05/13 06:42:50;;;;;;;6.40;1.45;;;13.30;99.90;;;;;;5045251;28;21101;-65
2022/05/13 06:45:16;;;;;;;4.82;1.23;;;13.30;99.90;;;;;;5069806;28;20032;-64
2022/05/13 06:47:42;;;;;;;6.18;1.20;;;13.30;99.90;;;;;;5044129;28;20056;-64
2022/05/13 06:50:10;;;;;;;8.63;1.30;;;13.40;99.90;;;;;;5032528;28;20041;-64
2022/05/13 06:52:36;;;;;;;6.05;1.45;;;13.30;99.90;;;;;;5043816;28;20439;-64
2022/05/13 06:55:02;;;;;;;6.55;1.20;;;13.30;99.90;;;;;;5051531;28;20173;-64
2022/05/13 06:57:28;;;;;;;4.65;1.40;;;13.40;99.90;;;;;;5051636;28;20119;-64
2022/05/13 06:59:53;;;;;;;6.80;1.98;;;13.40;99.90;;;;;;5070376;28;20178;-64
2022/05/13 07:02:21;;;;;;;7.35;1.55;;;13.50;99.90;;;;;;5035582;28;20045;-62
2022/05/13 07:04:47;;;;;;;10.32;1.60;;;13.60;99.90;;;;;;5039320;28;20059;-62
2022/05/13 07:07:13;;;;;;;8.95;1.63;;;13.60;99.90;;;;;;5052136;28;20481;-65
2022/05/13 07:09:40;;;;;;;6.18;1.40;;;13.70;99.90;;;;;;5043575;28;20048;-62
2022/05/13 07:12:07;;;;;;;6.90;1.70;;;13.60;99.90;;;;;;5032260;28;20044;-62
2022/05/13 07:14:34;;;;;;;6.65;1.92;;;13.60;99.90;;;;;;5059960;28;20044;-62
2022/05/13 07:17:01;;;;;;;7.05;2.10;;;13.60;99.90;;;;;;5052229;28;20051;-61
2022/05/13 07:19:27;;;;;;;6.68;1.33;;;13.60;99.90;;;;;;5067461;28;20387;-63
2022/05/13 07:21:53;;;;;;;7.70;1.70;;;13.70;99.90;;;;;;5060640;28;20044;-62
2022/05/13 07:24:18;;;;;;;6.80;1.70;;;13.80;99.90;;;;;;5031188;28;20037;-61
2022/05/13 07:26:44;;;;;;;13.00;1.58;;;14.00;99.90;;;;;;5037214;28;20042;-62
2022/05/13 07:29:10;;;;;;;6.00;1.88;;;14.20;99.90;;;;;;5057173;28;20037;-65
2022/05/13 07:31:36;;;;;;;9.18;1.92;;;14.40;99.90;;;;;;5061507;28;20041;-62
2022/05/13 07:34:02;;;;;;;7.43;1.50;;;14.40;99.90;;;;;;5064662;28;20045;-62
2022/05/13 07:36:28;;;;;;;4.03;1.33;;;14.70;99.90;;;;;;5050326;28;20037;-64
2022/05/13 07:41:38;;;;;;;10.43;1.73;;;15.10;99.90;;;;;;5053773;28;20045;-65
2022/05/13 07:44:04;;;;;;;4.03;1.35;;;14.90;99.90;;;;;;5038299;28;20391;-61
2022/05/13 07:46:29;;;;;;;4.13;1.20;;;14.90;99.90;;;;;;5052028;28;20095;-61
2022/05/13 07:48:55;;;;;;;3.50;1.38;;;15.00;99.90;;;;;;5057966;28;20036;-61
2022/05/13 07:51:23;;;;;;;3.83;1.20;;;15.20;99.90;;;;;;5052306;28;20041;-62
2022/05/13 07:53:49;;;;;;;5.95;1.25;;;15.40;99.90;;;;;;5054150;28;20036;-64
2022/05/13 07:56:14;;;;;;;6.93;1.58;;;15.20;99.90;;;;;;5054988;28;20037;-62
2022/05/13 07:58:40;;;;;;;7.57;1.55;;;15.00;99.90;;;;;;5060186;28;20032;-62
2022/05/13 08:01:06;;;;;;;5.03;1.38;;;14.90;99.90;;;;;;5043396;28;20090;-63
2022/05/13 08:03:31;;;;;;;3.45;1.10;;;15.10;99.90;;;;;;5048482;28;20052;-63
2022/05/13 08:06:02;;;;;;;5.35;1.30;;;15.30;99.90;;;;;;5073050;28;20047;-63
2022/05/13 08:08:33;;;;;;;3.50;1.00;;;15.40;99.90;;;;;;5073476;28;20078;-63
2022/05/13 08:11:01;;;;;;;3.63;1.15;;;15.50;99.90;;;;;;5069110;28;20041;-63
2022/05/13 08:13:32;;;;;;;6.43;1.48;;;15.50;99.90;;;;;;5065690;28;20052;-64
2022/05/13 08:15:58;;;;;;;6.60;1.08;;;15.30;99.90;;;;;;5055006;28;20072;-63
2022/05/13 08:18:24;;;;;;;5.82;1.20;;;15.00;99.90;;;;;;5055185;28;20055;-63
2022/05/13 08:20:51;;;;;;;3.70;1.10;;;15.00;99.90;;;;;;5050671;28;20051;-62
2022/05/13 08:23:17;;;;;;;6.18;1.10;;;15.10;99.90;;;;;;5072123;28;20036;-63
2022/05/13 08:25:44;;;;;;;5.10;1.20;;;15.20;99.90;;;;;;5063903;28;20045;-63
2022/05/13 08:28:11;;;;;;;4.22;1.17;;;15.20;99.90;;;;;;5053165;28;20047;-63
2022/05/13 08:30:38;;;;;;;7.15;1.60;;;15.30;99.90;;;;;;5059465;28;20547;-63
2022/05/13 08:33:08;;;;;;;3.92;1.13;;;15.00;99.90;;;;;;5067777;28;20117;-64
2022/05/13 08:35:40;;;;;;;4.60;1.13;;;14.80;99.90;;;;;;5044168;28;20445;-63
2022/05/13 08:38:06;;;;;;;;;;;14.60;99.90;;;;;;5070985;28;20494;-63
2022/05/13 08:40:59;;;;;;;7.22;1.20;;;14.60;99.90;;;;;;5070511;28;19920;-63
2022/05/13 08:43:36;;;;;;;5.05;1.10;;;14.70;99.90;;;;;;5071588;28;20590;-64
2022/05/13 08:46:25;;;;;;;4.78;1.13;;;14.90;99.90;;;;;;5057175;28;20073;-63
2022/05/13 08:49:20;;;;;;;6.65;1.48;;;15.00;99.90;;;;;;5034901;28;20115;-63
2022/05/13 08:53:06;;;;;;;4.90;0.95;;;15.10;99.90;;;;;;5034917;28;20045;-63
2022/05/13 08:54:53;;;;;;;5.18;1.23;;;15.10;99.90;;;;;;5053041;28;20392;-63
2022/05/13 08:57:19;;;;;;;6.68;1.27;;;14.90;99.90;;;;;;5056480;28;20040;-64
2022/05/13 08:59:55;;;;;;;7.28;1.13;;;14.90;99.90;;;;;;5061014;28;20052;-63
2022/05/13 09:02:38;;;;;;;3.08;1.20;;;14.90;99.90;;;;;;5048985;28;20175;-63
2022/05/13 09:05:26;;;;;;;3.83;1.02;;;14.90;99.90;;;;;;5064713;28;20040;-64
2022/05/13 09:07:53;;;;;;;6.13;1.25;;;14.90;99.90;;;;;;5035879;28;20044;-63
2022/05/13 09:10:19;;;;;;;8.85;1.42;;;14.90;99.90;;;;;;5056710;28;20048;-63
2022/05/13 09:13:00;;;;;;;5.82;1.10;;;15.00;99.90;;;;;;5047735;28;20490;-64
2022/05/13 09:15:42;;;;;;;6.60;1.30;;;15.10;99.90;;;;;;5058244;28;20052;-63
2022/05/13 09:18:17;;;;;;;4.15;1.08;;;15.30;99.90;;;;;;5036538;28;20072;-64
2022/05/13 09:20:58;;;;;;;5.47;1.20;;;15.70;99.90;;;;;;5053063;28;20129;-64
2022/05/13 09:23:24;;;;;;;5.50;1.30;;;15.90;99.90;;;;;;5064359;28;20099;-64
2022/05/13 09:26:19;;;;;;;7.65;1.15;;;16.00;99.90;;;;;;5070174;28;20043;-63
2022/05/13 09:29:18;;;;;;;9.48;1.33;;;15.70;99.90;;;;;;5071928;28;20044;-63
2022/05/13 09:32:07;;;;;;;6.32;1.40;;;15.40;99.90;;;;;;5072203;28;20033;-63
2022/05/13 09:34:47;;;;;;;8.93;1.63;;;15.30;99.90;;;;;;5046791;28;20049;-64
2022/05/13 09:37:23;;;;;;;6.18;1.40;;;15.30;99.90;;;;;;5053122;28;20025;-64
2022/05/13 09:40:11;;;;;;;4.78;1.00;;;15.20;99.90;;;;;;5051983;28;20040;-64
2022/05/13 09:42:43;;;;;;;9.05;1.98;;;15.10;99.90;;;;;;5033624;28;20064;-64
2022/05/13 09:45:21;;;;;;;8.25;1.70;;;15.20;99.90;;;;;;5066857;28;20521;-63
2022/05/13 09:48:07;;;;;;;5.68;1.10;;;15.30;99.90;;;;;;5053866;28;20123;-63
2022/05/13 09:50:38;;;;;;;8.75;1.52;;;15.30;99.90;;;;;;5071254;28;20048;-63
2022/05/13 09:53:10;;;;;;;5.03;1.40;;;15.40;99.90;;;;;;5053301;28;20158;-64
2022/05/13 09:55:38;;;;;;;7.68;1.52;;;15.70;99.90;;;;;;5053402;28;20040;-64
2022/05/13 09:58:18;;;;;;;7.30;1.65;;;16.00;99.90;;;;;;5052529;28;20040;-65
2022/05/13 10:00:48;;;;;;;6.85;1.30;;;16.10;99.90;;;;;;5033732;28;20036;-63
2022/05/13 10:03:21;;;;;;;4.60;1.20;;;16.00;99.90;;;;;;5051067;28;20123;-63
2022/05/13 10:06:03;;;;;;;;;;;16.00;99.90;;;;;;5043290;28;20044;-64
2022/05/13 10:08:29;;;;;;;7.72;1.20;;;16.20;99.90;;;;;;5016738;28;19921;-64
2022/05/13 10:13:59;;;;;;;6.25;1.52;;;16.20;99.90;;;;;;5065712;28;20048;-64
2022/05/13 10:16:47;;;;;;;6.05;1.42;;;16.50;99.90;;;;;;5069988;28;20421;-64
2022/05/13 10:19:17;;;;;;;5.30;1.20;;;16.70;99.90;;;;;;5039195;28;20049;-64
2022/05/13 10:22:04;;;;;;;6.75;1.50;;;16.50;99.90;;;;;;5033152;28;20099;-64
2022/05/13 10:24:58;;;;;;;6.78;1.02;;;16.60;99.90;;;;;;5051861;28;20514;-65
2022/05/13 10:27:36;;;;;;;5.57;1.30;;;16.50;99.90;;;;;;5033316;28;20041;-64
2022/05/13 10:30:13;;;;;;;4.55;1.05;;;16.30;99.90;;;;;;5053791;28;20491;-64
2022/05/13 10:32:52;;;;;;;6.97;1.30;;;16.10;99.90;;;;;;5048793;28;20048;-64
2022/05/13 10:35:21;;;;;;;7.05;1.48;;;15.90;99.90;;;;;;5070384;28;20033;-63
2022/05/13 10:38:05;;;;;;;5.15;1.17;;;15.80;99.90;;;;;;5061596;28;20032;-64
2022/05/13 10:40:38;;;;;;;6.07;1.13;;;15.90;99.90;;;;;;5055037;28;20499;-63
2022/05/13 10:43:15;;;;;;;10.02;1.25;;;16.30;99.90;;;;;;5034875;28;20044;-64
2022/05/13 10:45:43;;;;;;;5.47;1.15;;;16.70;99.90;;;;;;5049970;28;20493;-63
2022/05/13 10:48:15;;;;;;;7.25;1.20;;;17.10;99.90;;;;;;5038336;28;20040;-63
2022/05/13 10:50:56;;;;;;;4.23;1.20;;;17.60;99.90;;;;;;5032728;28;20399;-63
2022/05/13 10:53:28;;;;;;;3.05;0.82;;;17.90;99.90;;;;;;5050029;28;20084;-63
2022/05/13 10:56:14;;;;;;;4.68;1.10;;;18.00;99.80;;;;;;5049964;28;20127;-64
2022/05/13 10:59:27;;;;;;;3.85;1.38;;;18.00;99.90;;;;;;5051538;28;20041;-64
2022/05/13 11:02:16;;;;;;;;;;;18.20;98.80;;;;;;4934531;29;20054;-63
2022/05/13 11:04:55;;;;;;;8.55;1.02;;;18.00;97.10;;;;;;4953493;28;19926;-63
2022/05/13 11:07:49;;;;;;;4.32;1.10;;;18.10;98.20;;;;;;4951486;28;20090;-64
2022/05/13 11:10:37;;;;;;;4.72;1.10;;;17.90;98.00;;;;;;4966368;28;20043;-63
2022/05/13 11:13:24;;;;;;;7.43;1.45;;;18.00;98.60;;;;;;4944965;28;20546;-63
2022/05/13 11:16:03;;;;;;;3.28;1.00;;;17.60;98.00;;;;;;4933697;28;20176;-63
2022/05/13 11:18:38;;;;;;;5.65;1.30;;;17.40;98.40;;;;;;4953149;28;20054;-63
2022/05/13 11:21:22;;;;;;;6.18;1.20;;;17.40;99.00;;;;;;4944485;28;20168;-63
2022/05/13 11:26:54;;;;;;;3.38;0.95;;;17.70;98.10;;;;;;4949974;28;20047;-63
2022/05/13 11:29:47;;;;;;;5.47;1.30;;;17.70;98.60;;;;;;4935595;28;20588;-63
2022/05/13 11:32:37;;;;;;;3.50;1.25;;;17.40;97.70;;;;;;4936334;28;20137;-63
2022/05/13 11:35:14;;;;;;;8.65;1.67;;;17.60;98.80;;;;;;4937776;28;20134;-63
2022/05/13 11:37:43;;;;;;;6.63;2.00;;;17.70;98.80;;;;;;5014903;28;20088;-63
2022/05/13 11:40:30;;;;;;;5.55;1.50;;;17.90;98.40;;;;;;5066164;28;20090;-63
2022/05/13 11:43:27;;;;;;;8.52;1.85;;;18.00;98.30;;;;;;5062346;28;20040;-63
2022/05/13 11:46:01;;;;;;;11.02;1.83;;;17.60;97.00;;;;;;5019158;28;20079;-64
2022/05/13 11:48:42;;;;;;;8.75;1.58;;;17.20;98.70;;;;;;5036034;28;20064;-63
2022/05/13 11:51:26;;;;;;;4.75;1.42;;;17.40;98.80;;;;;;5055636;28;20090;-63
2022/05/13 11:54:00;;;;;;;7.70;1.58;;;17.40;98.10;;;;;;5064861;28;20430;-64
2022/05/13 11:56:26;;;;;;;7.38;1.58;;;17.30;97.90;;;;;;5053864;28;20499;-62
2022/05/13 11:59:03;;;;;;;4.13;1.40;;;17.30;98.50;;;;;;5053616;28;20041;-63
2022/05/13 12:01:38;;;;;;;6.22;1.50;;;17.20;98.70;;;;;;5038394;28;20037;-64
2022/05/13 12:04:13;;;;;;;4.22;1.30;;;17.00;99.10;;;;;;5036745;28;20106;-63
2022/05/13 12:06:50;;;;;;;8.80;1.90;;;17.10;99.30;;;;;;5053665;28;20129;-64
2022/05/13 12:09:45;;;;;;;6.00;1.67;;;17.20;99.00;;;;;;5035704;28;20052;-64
2022/05/13 12:12:39;;;;;;;7.10;2.10;;;17.10;98.70;;;;;;5055860;28;20048;-63
2022/05/13 12:15:37;;;;;;;28.30;2.75;;;17.20;99.30;;;;;;5073431;28;20049;-63
2022/05/13 12:18:30;;;;;;;5.97;1.80;;;17.40;99.40;;;;;;5073442;28;20113;-63
2022/05/13 12:21:30;;;;;;;5.07;1.55;;;17.50;99.00;;;;;;5055584;28;20502;-63
2022/05/13 12:24:01;;;;;;;6.78;1.30;;;17.60;98.40;;;;;;5048555;28;20064;-64
2022/05/13 12:26:52;;;;;;;5.90;1.60;;;17.70;98.40;;;;;;5038420;28;20045;-63
2022/05/13 12:29:43;;;;;;;4.05;1.35;;;17.90;97.40;;;;;;5035149;28;20072;-63
2022/05/13 12:32:22;;;;;;;7.22;1.75;;;18.00;97.00;;;;;;5053114;28;20124;-63
2022/05/13 12:37:43;;;;;;;7.63;1.50;;;17.90;97.00;;;;;;5059040;28;20052;-64
2022/05/13 12:40:29;;;;;;;4.07;1.20;;;17.90;97.20;;;;;;5040071;28;20069;-63
2022/05/13 12:43:04;;;;;;;4.70;1.13;;;18.00;96.70;;;;;;5052157;28;20082;-63
2022/05/13 12:45:39;;;;;;;5.38;1.10;;;17.50;96.00;;;;;;5036399;28;20090;-64
2022/05/13 12:48:08;;;;;;;7.78;1.10;;;17.40;96.00;;;;;;5035451;28;20045;-64
2022/05/13 12:50:53;;;;;;;12.75;1.50;;;17.40;96.40;;;;;;5035372;28;20554;-63
2022/05/13 12:53:28;;;;;;;6.30;1.33;;;17.30;96.40;;;;;;5052599;28;20049;-64
2022/05/13 12:56:08;;;;;;;5.20;1.20;;;17.30;97.30;;;;;;5046628;28;20036;-63
2022/05/13 12:58:37;;;;;;;3.83;1.50;;;17.30;96.90;;;;;;5070944;28;20484;-63
2022/05/13 13:01:04;;;;;;;6.13;1.42;;;17.20;96.80;;;;;;5034917;28;20086;-63
2022/05/13 13:03:38;;;;;;;5.18;1.02;;;17.20;97.50;;;;;;5052446;28;20517;-63
2022/05/13 13:06:16;;;;;;;5.25;1.10;;;17.20;97.30;;;;;;5054100;28;20041;-63
2022/05/13 13:08:43;;;;;;;7.55;1.33;;;17.20;96.40;;;;;;5067764;28;20048;-63
2022/05/13 13:11:35;;;;;;;5.70;1.35;;;17.10;97.10;;;;;;5054546;28;20040;-64
2022/05/13 13:14:09;;;;;;;6.20;1.52;;;17.10;97.80;;;;;;5072402;28;20044;-63
2022/05/13 13:17:01;;;;;;;9.07;1.30;;;16.90;97.40;;;;;;5066738;28;20135;-63
2022/05/13 13:19:29;;;;;;;11.07;2.65;;;16.90;97.30;;;;;;4951901;28;20569;-63
2022/05/13 13:22:03;;;;;;;5.60;1.42;;;16.80;97.40;;;;;;4936023;28;20427;-63
2022/05/13 13:24:36;;;;;;;7.15;1.50;;;16.70;97.20;;;;;;4951822;28;20093;-64
2022/05/13 13:27:04;;;;;;;7.13;1.40;;;16.70;97.00;;;;;;4937525;28;20086;-63
2022/05/13 13:29:36;;;;;;;4.15;1.10;;;16.80;96.80;;;;;;4935567;28;20055;-63
2022/05/13 13:32:07;;;;;;;5.10;1.52;;;16.80;97.20;;;;;;4952697;28;20490;-63
2022/05/13 13:34:37;;;;;;;5.72;1.08;;;16.70;96.40;;;;;;4970781;28;20401;-63
2022/05/13 13:37:07;;;;;;;5.20;1.80;;;16.70;96.70;;;;;;4954812;28;20093;-63
2022/05/13 13:39:33;;;;;;;6.82;1.52;;;16.70;96.90;;;;;;4951482;28;20039;-63
2022/05/13 13:42:05;;;;;;;5.45;1.55;;;16.80;97.00;;;;;;4935528;28;20396;-63